Time;durP1;ratioP1;P1;durP2;ratioP2;P2;SDS_P1;SDS_P2;PMS_P1;PMS_P2;Temp;Humidity;BMP_temperature;BMP_pressure;BME280_temperature;BME280_humidity;BME280_pressure;Samples;Min_cycle;Max_cycle;Signal;HPM_P1;HPM_P2
2024/01/08 00:00:09;;;;;;;2.53;1.73;;;;;;;;;;498882;28;1289;-67
2024/01/08 00:00:25;;;;;;;2.30;1.70;;;;;;;;;;495386;28;1326;-67
2024/01/08 00:00:41;;;;;;;2.00;1.70;;;;;;;;;;501263;28;947;-67
2024/01/08 00:00:57;;;;;;;2.20;1.70;;;;;;;;;;499131;28;1400;-67
2024/01/08 00:01:12;;;;;;;3.10;1.80;;;;;;;;;;496948;28;1086;-67
2024/01/08 00:01:28;;;;;;;2.78;1.70;;;;;;;;;;497806;28;870;-67
2024/01/08 00:01:48;;;;;;;3.55;1.85;;;;;;;;;;501924;28;1289;-67
2024/01/08 00:02:04;;;;;;;2.97;1.90;;;;;;;;;;502724;28;1276;-67
2024/01/08 00:02:20;;;;;;;2.55;1.75;;;;;;;;;;500585;28;1261;-66
2024/01/08 00:02:38;;;;;;;2.30;1.77;;;;;;;;;;504452;28;1243;-67
2024/01/08 00:02:53;;;;;;;2.22;1.70;;;;;;;;;;502702;28;1172;-67
2024/01/08 00:03:09;;;;;;;2.30;1.67;;;;;;;;;;498525;28;1297;-67
2024/01/08 00:03:25;;;;;;;2.47;1.70;;;;;;;;;;498159;28;1295;-66
2024/01/08 00:03:41;;;;;;;2.53;1.60;;;;;;;;;;503849;28;1641;-67
2024/01/08 00:03:56;;;;;;;2.43;1.77;;;;;;;;;;498639;28;1212;-67
2024/01/08 00:04:12;;;;;;;2.25;1.73;;;;;;;;;;498443;28;1333;-68
2024/01/08 00:04:27;;;;;;;2.28;1.80;;;;;;;;;;497770;28;1260;-68
2024/01/08 00:04:44;;;;;;;2.30;1.83;;;;;;;;;;501009;28;1212;-67
2024/01/08 00:05:00;;;;;;;2.10;1.70;;;;;;;;;;500867;28;1383;-67
2024/01/08 00:05:15;;;;;;;2.63;1.70;;;;;;;;;;496986;28;1155;-67
2024/01/08 00:05:31;;;;;;;2.83;1.80;;;;;;;;;;502251;28;1244;-67
2024/01/08 00:05:48;;;;;;;2.65;1.80;;;;;;;;;;504058;28;1244;-67
2024/01/08 00:06:04;;;;;;;2.88;1.80;;;;;;;;;;502799;28;1211;-66
2024/01/08 00:06:19;;;;;;;2.78;1.70;;;;;;;;;;497970;28;1240;-67
2024/01/08 00:06:35;;;;;;;2.53;1.60;;;;;;;;;;504839;28;1299;-67
2024/01/08 00:06:51;;;;;;;2.17;1.50;;;;;;;;;;498189;28;1255;-66
2024/01/08 00:07:07;;;;;;;2.28;1.65;;;;;;;;;;499869;28;1314;-66
2024/01/08 00:07:25;;;;;;;2.47;1.80;;;;;;;;;;496257;28;1168;-66
2024/01/08 00:07:41;;;;;;;2.45;1.80;;;;;;;;;;498853;28;1303;-67
2024/01/08 00:07:56;;;;;;;2.42;1.70;;;;;;;;;;499327;28;1132;-66
2024/01/08 00:08:12;;;;;;;2.20;1.65;;;;;;;;;;497698;28;1137;-67
2024/01/08 00:08:27;;;;;;;2.30;1.70;;;;;;;;;;499435;28;1213;-67
2024/01/08 00:08:43;;;;;;;2.47;1.70;;;;;;;;;;494790;28;1267;-68
2024/01/08 00:08:59;;;;;;;2.22;1.67;;;;;;;;;;496655;28;882;-66
2024/01/08 00:09:15;;;;;;;2.00;1.67;;;;;;;;;;496951;28;1139;-68
2024/01/08 00:09:30;;;;;;;1.90;1.60;;;;;;;;;;496520;28;1256;-67
2024/01/08 00:09:48;;;;;;;2.17;1.70;;;;;;;;;;496417;28;1316;-67
2024/01/08 00:10:04;;;;;;;2.67;1.80;;;;;;;;;;497145;28;1901;-66
2024/01/08 00:10:20;;;;;;;2.60;1.70;;;;;;;;;;498495;28;1310;-67
2024/01/08 00:10:38;;;;;;;2.47;1.60;;;;;;;;;;498315;28;1101;-67
2024/01/08 00:10:54;;;;;;;2.58;1.58;;;;;;;;;;499529;28;964;-67
2024/01/08 00:11:09;;;;;;;2.10;1.53;;;;;;;;;;499127;28;1021;-67
2024/01/08 00:11:24;;;;;;;2.27;1.60;;;;;;;;;;497887;28;1241;-66
2024/01/08 00:11:40;;;;;;;2.67;1.70;;;;;;;;;;497784;28;1167;-67
2024/01/08 00:11:56;;;;;;;2.83;1.67;;;;;;;;;;498072;28;1430;-67
2024/01/08 00:12:12;;;;;;;2.35;1.65;;;;;;;;;;499478;28;890;-67
2024/01/08 00:12:27;;;;;;;2.23;1.70;;;;;;;;;;498823;28;1149;-67
2024/01/08 00:12:42;;;;;;;2.30;1.60;;;;;;;;;;498245;28;1109;-67
2024/01/08 00:12:58;;;;;;;1.93;1.47;;;;;;;;;;497984;28;1056;-67
2024/01/08 00:13:13;;;;;;;2.03;1.60;;;;;;;;;;498347;28;910;-67
2024/01/08 00:13:29;;;;;;;3.30;1.67;;;;;;;;;;496735;28;1311;-66
2024/01/08 00:13:44;;;;;;;3.47;1.60;;;;;;;;;;497389;28;1006;-67
2024/01/08 00:14:00;;;;;;;2.60;1.60;;;;;;;;;;497015;28;1037;-67
2024/01/08 00:14:15;;;;;;;2.25;1.60;;;;;;;;;;499491;28;1059;-67
2024/01/08 00:14:31;;;;;;;2.57;1.80;;;;;;;;;;497208;28;1333;-68
2024/01/08 00:14:46;;;;;;;2.63;1.80;;;;;;;;;;500245;28;1282;-67
2024/01/08 00:15:03;;;;;;;2.50;1.70;;;;;;;;;;500243;28;924;-67
2024/01/08 00:15:18;;;;;;;2.83;1.70;;;;;;;;;;502527;28;1350;-67
2024/01/08 00:15:34;;;;;;;2.77;1.57;;;;;;;;;;502082;28;986;-67
2024/01/08 00:15:49;;;;;;;2.53;1.50;;;;;;;;;;501291;28;1548;-67
2024/01/08 00:16:05;;;;;;;2.30;1.50;;;;;;;;;;501439;28;1126;-66
2024/01/08 00:16:21;;;;;;;1.95;1.38;;;;;;;;;;500198;28;1115;-67
2024/01/08 00:16:36;;;;;;;1.90;1.40;;;;;;;;;;500190;28;985;-67
2024/01/08 00:16:52;;;;;;;2.37;1.60;;;;;;;;;;499626;28;1161;-67
2024/01/08 00:17:07;;;;;;;2.63;1.60;;;;;;;;;;499797;28;1945;-67
2024/01/08 00:17:23;;;;;;;2.70;1.50;;;;;;;;;;502715;28;934;-67
2024/01/08 00:17:38;;;;;;;2.72;1.50;;;;;;;;;;501594;28;1647;-66
2024/01/08 00:17:54;;;;;;;3.00;1.50;;;;;;;;;;501284;28;1309;-67
2024/01/08 00:18:09;;;;;;;2.95;1.50;;;;;;;;;;501702;28;1108;-67
2024/01/08 00:18:25;;;;;;;2.60;1.57;;;;;;;;;;502435;28;1373;-67
2024/01/08 00:18:40;;;;;;;2.75;1.58;;;;;;;;;;502426;28;1124;-67
2024/01/08 00:18:56;;;;;;;2.23;1.50;;;;;;;;;;500088;28;1142;-67
2024/01/08 00:19:11;;;;;;;1.90;1.40;;;;;;;;;;499710;28;1107;-67
2024/01/08 00:19:27;;;;;;;2.10;1.40;;;;;;;;;;498701;28;1275;-67
2024/01/08 00:19:42;;;;;;;1.95;1.42;;;;;;;;;;496529;28;1297;-67
2024/01/08 00:19:58;;;;;;;2.17;1.57;;;;;;;;;;496372;28;1330;-67
2024/01/08 00:20:13;;;;;;;2.15;1.63;;;;;;;;;;494712;28;1136;-67
2024/01/08 00:20:29;;;;;;;2.13;1.47;;;;;;;;;;497132;28;1291;-67
2024/01/08 00:20:45;;;;;;;2.35;1.40;;;;;;;;;;498085;28;1384;-67
2024/01/08 00:21:02;;;;;;;2.25;1.50;;;;;;;;;;499107;28;1511;-67
2024/01/08 00:21:18;;;;;;;2.17;1.50;;;;;;;;;;495160;28;1455;-67
2024/01/08 00:21:34;;;;;;;2.10;1.40;;;;;;;;;;500763;28;1290;-67
2024/01/08 00:21:49;;;;;;;2.00;1.40;;;;;;;;;;497487;28;1273;-68
2024/01/08 00:22:05;;;;;;;2.20;1.50;;;;;;;;;;497506;28;1094;-67
2024/01/08 00:22:21;;;;;;;2.30;1.50;;;;;;;;;;497651;28;1271;-67
2024/01/08 00:22:36;;;;;;;2.03;1.40;;;;;;;;;;498093;28;1246;-67
2024/01/08 00:22:52;;;;;;;1.63;1.33;;;;;;;;;;499801;28;1177;-67
2024/01/08 00:23:07;;;;;;;2.20;1.30;;;;;;;;;;503780;28;1594;-67
2024/01/08 00:23:23;;;;;;;2.38;1.40;;;;;;;;;;498106;28;1309;-67
2024/01/08 00:23:39;;;;;;;2.42;1.55;;;;;;;;;;500319;28;1140;-67
2024/01/08 00:23:55;;;;;;;2.58;1.67;;;;;;;;;;498890;28;1335;-67
2024/01/08 00:24:10;;;;;;;2.20;1.40;;;;;;;;;;499546;28;1132;-67
2024/01/08 00:24:26;;;;;;;2.53;1.40;;;;;;;;;;498068;28;1270;-67
2024/01/08 00:24:41;;;;;;;2.50;1.50;;;;;;;;;;500813;28;1208;-67
2024/01/08 00:24:57;;;;;;;2.22;1.30;;;;;;;;;;497223;28;1760;-67
2024/01/08 00:25:13;;;;;;;2.10;1.40;;;;;;;;;;497417;28;1402;-67
2024/01/08 00:25:28;;;;;;;1.80;1.40;;;;;;;;;;501016;28;1296;-67
2024/01/08 00:25:44;;;;;;;2.47;1.50;;;;;;;;;;498517;28;1354;-67
2024/01/08 00:26:00;;;;;;;2.90;1.63;;;;;;;;;;498643;28;1195;-67
2024/01/08 00:26:16;;;;;;;2.03;1.60;;;;;;;;;;496715;28;1184;-67
2024/01/08 00:26:32;;;;;;;1.98;1.40;;;;;;;;;;500016;28;1290;-67
2024/01/08 00:26:47;;;;;;;2.40;1.50;;;;;;;;;;501607;28;1507;-67
2024/01/08 00:27:03;;;;;;;2.37;1.40;;;;;;;;;;501658;28;1078;-67
2024/01/08 00:27:19;;;;;;;2.65;1.40;;;;;;;;;;498445;28;1201;-67
2024/01/08 00:27:35;;;;;;;2.60;1.60;;;;;;;;;;502447;28;965;-67
2024/01/08 00:27:51;;;;;;;2.33;1.50;;;;;;;;;;501710;28;1348;-67
2024/01/08 00:28:06;;;;;;;1.85;1.40;;;;;;;;;;499635;28;1157;-65
2024/01/08 00:28:22;;;;;;;1.87;1.37;;;;;;;;;;496544;28;1383;-67
2024/01/08 00:28:38;;;;;;;1.80;1.40;;;;;;;;;;498947;28;1133;-67
2024/01/08 00:28:54;;;;;;;1.65;1.27;;;;;;;;;;499061;28;1272;-67
2024/01/08 00:29:10;;;;;;;1.73;1.30;;;;;;;;;;500505;28;1461;-67
2024/01/08 00:29:25;;;;;;;1.60;1.40;;;;;;;;;;493623;28;1348;-67
2024/01/08 00:29:41;;;;;;;1.60;1.30;;;;;;;;;;503840;28;1208;-67
2024/01/08 00:29:57;;;;;;;1.70;1.30;;;;;;;;;;501025;28;1207;-67
2024/01/08 00:30:12;;;;;;;1.75;1.30;;;;;;;;;;500600;28;1468;-67
2024/01/08 00:30:28;;;;;;;1.70;1.20;;;;;;;;;;502007;28;1246;-67
2024/01/08 00:30:43;;;;;;;1.73;1.27;;;;;;;;;;506292;28;1090;-67
2024/01/08 00:30:59;;;;;;;1.77;1.20;;;;;;;;;;502910;28;1504;-67
2024/01/08 00:31:15;;;;;;;2.27;1.30;;;;;;;;;;496710;28;1184;-67
2024/01/08 00:31:31;;;;;;;2.20;1.30;;;;;;;;;;499497;28;1836;-67
2024/01/08 00:31:47;;;;;;;1.85;1.27;;;;;;;;;;500250;28;1287;-67
2024/01/08 00:32:05;;;;;;;2.10;1.40;;;;;;;;;;501774;28;1084;-67
2024/01/08 00:32:21;;;;;;;2.65;1.35;;;;;;;;;;495494;28;1122;-67
2024/01/08 00:32:37;;;;;;;2.63;1.40;;;;;;;;;;502477;28;1413;-67
2024/01/08 00:32:53;;;;;;;2.15;1.50;;;;;;;;;;505603;28;1343;-66
2024/01/08 00:33:09;;;;;;;1.77;1.40;;;;;;;;;;505601;28;1254;-67
2024/01/08 00:33:25;;;;;;;1.88;1.30;;;;;;;;;;500468;28;1216;-67
2024/01/08 00:33:40;;;;;;;2.33;1.35;;;;;;;;;;504945;28;1147;-67
2024/01/08 00:33:56;;;;;;;1.88;1.20;;;;;;;;;;504634;28;867;-66
2024/01/08 00:34:12;;;;;;;1.80;1.17;;;;;;;;;;501642;28;1154;-67
2024/01/08 00:34:27;;;;;;;1.80;1.20;;;;;;;;;;498619;28;1181;-67
2024/01/08 00:34:43;;;;;;;1.52;1.27;;;;;;;;;;498150;28;1367;-67
2024/01/08 00:35:01;;;;;;;1.58;1.33;;;;;;;;;;499053;28;1330;-67
2024/01/08 00:35:17;;;;;;;2.10;1.45;;;;;;;;;;499039;28;1275;-67
2024/01/08 00:35:33;;;;;;;2.20;1.30;;;;;;;;;;506785;28;1366;-67
2024/01/08 00:35:49;;;;;;;1.95;1.30;;;;;;;;;;507470;28;907;-67
2024/01/08 00:36:04;;;;;;;1.70;1.30;;;;;;;;;;505037;28;1225;-67
2024/01/08 00:36:22;;;;;;;1.75;1.13;;;;;;;;;;501999;28;923;-67
2024/01/08 00:36:37;;;;;;;1.80;1.20;;;;;;;;;;505909;28;1389;-67
2024/01/08 00:36:54;;;;;;;2.05;1.23;;;;;;;;;;500237;28;1673;-67
2024/01/08 00:37:09;;;;;;;2.35;1.20;;;;;;;;;;501042;28;2469;-67
2024/01/08 00:37:25;;;;;;;2.03;1.30;;;;;;;;;;498319;28;1302;-67
2024/01/08 00:37:41;;;;;;;1.63;1.27;;;;;;;;;;501654;28;1676;-67
2024/01/08 00:37:56;;;;;;;1.85;1.30;;;;;;;;;;499918;28;1232;-67
2024/01/08 00:38:12;;;;;;;2.07;1.30;;;;;;;;;;497521;28;925;-68
2024/01/08 00:38:28;;;;;;;2.15;1.27;;;;;;;;;;500531;28;1223;-67
2024/01/08 00:38:43;;;;;;;2.13;1.23;;;;;;;;;;504474;28;1161;-67
2024/01/08 00:38:59;;;;;;;1.73;1.27;;;;;;;;;;498379;28;1338;-68
2024/01/08 00:39:14;;;;;;;1.92;1.40;;;;;;;;;;499520;28;1106;-67
2024/01/08 00:39:30;;;;;;;2.10;1.40;;;;;;;;;;498832;28;1145;-68
2024/01/08 00:39:46;;;;;;;1.70;1.20;;;;;;;;;;500661;28;1257;-67
2024/01/08 00:40:04;;;;;;;1.60;1.30;;;;;;;;;;497798;28;1182;-67
2024/01/08 00:40:20;;;;;;;1.90;1.38;;;;;;;;;;498252;28;1462;-67
2024/01/08 00:40:35;;;;;;;2.05;1.40;;;;;;;;;;504760;28;1478;-67
2024/01/08 00:40:52;;;;;;;2.03;1.40;;;;;;;;;;500274;28;1400;-67
2024/01/08 00:41:08;;;;;;;1.70;1.30;;;;;;;;;;504835;28;1306;-67
2024/01/08 00:41:24;;;;;;;1.95;1.30;;;;;;;;;;499947;28;1294;-67
2024/01/08 00:41:40;;;;;;;2.03;1.30;;;;;;;;;;504148;28;1303;-67
2024/01/08 00:41:56;;;;;;;1.80;1.20;;;;;;;;;;505605;28;1248;-67
2024/01/08 00:42:11;;;;;;;2.25;1.30;;;;;;;;;;505821;28;1257;-67
2024/01/08 00:42:27;;;;;;;2.40;1.40;;;;;;;;;;503862;28;1365;-67
2024/01/08 00:42:43;;;;;;;2.23;1.40;;;;;;;;;;504762;28;1330;-67
2024/01/08 00:42:59;;;;;;;2.05;1.40;;;;;;;;;;503711;28;1433;-67
2024/01/08 00:43:14;;;;;;;1.88;1.30;;;;;;;;;;503412;28;1323;-67
2024/01/08 00:43:30;;;;;;;1.93;1.30;;;;;;;;;;503314;28;1080;-67
2024/01/08 00:43:46;;;;;;;1.73;1.27;;;;;;;;;;499053;28;1107;-67
2024/01/08 00:44:02;;;;;;;1.85;1.20;;;;;;;;;;497521;28;1257;-68
2024/01/08 00:44:18;;;;;;;1.80;1.20;;;;;;;;;;497111;28;1315;-68
2024/01/08 00:44:34;;;;;;;1.45;1.13;;;;;;;;;;505419;28;1255;-67
2024/01/08 00:44:49;;;;;;;1.95;1.30;;;;;;;;;;501648;28;1362;-67
2024/01/08 00:45:06;;;;;;;2.13;1.40;;;;;;;;;;500429;28;1340;-67
2024/01/08 00:45:22;;;;;;;2.03;1.40;;;;;;;;;;497800;28;1014;-67
2024/01/08 00:45:38;;;;;;;1.97;1.33;;;;;;;;;;507368;28;1301;-67
2024/01/08 00:45:53;;;;;;;1.65;1.20;;;;;;;;;;503884;28;1233;-67
2024/01/08 00:46:09;;;;;;;1.80;1.30;;;;;;;;;;501901;28;1263;-67
2024/01/08 00:46:25;;;;;;;1.80;1.30;;;;;;;;;;498290;28;1183;-67
2024/01/08 00:46:40;;;;;;;1.90;1.30;;;;;;;;;;503803;28;1141;-67
2024/01/08 00:46:56;;;;;;;2.20;1.33;;;;;;;;;;500350;28;1188;-67
2024/01/08 00:47:12;;;;;;;1.92;1.35;;;;;;;;;;499441;28;1352;-67
2024/01/08 00:47:27;;;;;;;2.40;1.40;;;;;;;;;;497982;28;1259;-67
2024/01/08 00:47:43;;;;;;;2.47;1.30;;;;;;;;;;497343;28;1179;-66
2024/01/08 00:47:59;;;;;;;2.20;1.30;;;;;;;;;;499442;28;1340;-66
2024/01/08 00:48:14;;;;;;;2.27;1.30;;;;;;;;;;496962;28;1064;-67
2024/01/08 00:48:30;;;;;;;1.90;1.30;;;;;;;;;;499368;28;1319;-67
2024/01/08 00:48:46;;;;;;;1.90;1.30;;;;;;;;;;499915;28;1160;-67
2024/01/08 00:49:01;;;;;;;1.73;1.23;;;;;;;;;;502140;28;1202;-67
2024/01/08 00:49:17;;;;;;;2.58;1.30;;;;;;;;;;498316;28;908;-67
2024/01/08 00:49:33;;;;;;;2.72;1.40;;;;;;;;;;504583;28;1926;-67
2024/01/08 00:49:48;;;;;;;1.77;1.38;;;;;;;;;;496784;28;1277;-67
2024/01/08 00:50:05;;;;;;;1.67;1.23;;;;;;;;;;502272;28;1080;-68
2024/01/08 00:50:21;;;;;;;1.63;1.25;;;;;;;;;;495250;28;1368;-67
2024/01/08 00:50:37;;;;;;;2.08;1.30;;;;;;;;;;502064;28;1078;-67
2024/01/08 00:50:52;;;;;;;2.47;1.40;;;;;;;;;;503113;28;1252;-67
2024/01/08 00:51:09;;;;;;;2.27;1.40;;;;;;;;;;503510;28;1349;-67
2024/01/08 00:51:25;;;;;;;2.67;1.40;;;;;;;;;;499821;28;897;-67
2024/01/08 00:51:41;;;;;;;2.88;1.40;;;;;;;;;;499833;28;1477;-67
2024/01/08 00:51:57;;;;;;;2.72;1.30;;;;;;;;;;498170;28;1378;-67
2024/01/08 00:52:12;;;;;;;1.95;1.33;;;;;;;;;;500450;28;1186;-67
2024/01/08 00:52:28;;;;;;;2.60;1.50;;;;;;;;;;495685;28;1135;-67
2024/01/08 00:52:44;;;;;;;3.13;1.50;;;;;;;;;;498233;28;1134;-66
2024/01/08 00:53:00;;;;;;;2.17;1.35;;;;;;;;;;498796;28;1251;-66
2024/01/08 00:53:15;;;;;;;1.75;1.38;;;;;;;;;;497820;28;1343;-67
2024/01/08 00:53:31;;;;;;;2.15;1.50;;;;;;;;;;502961;28;1332;-67
2024/01/08 00:53:47;;;;;;;2.03;1.40;;;;;;;;;;502136;28;1180;-67
2024/01/08 00:54:03;;;;;;;1.90;1.30;;;;;;;;;;498149;28;1332;-68
2024/01/08 00:54:19;;;;;;;2.25;1.40;;;;;;;;;;500670;28;1304;-67
2024/01/08 00:54:36;;;;;;;1.67;1.27;;;;;;;;;;503838;28;1248;-66
2024/01/08 00:54:51;;;;;;;1.70;1.30;;;;;;;;;;501720;28;1474;-67
2024/01/08 00:55:07;;;;;;;1.83;1.48;;;;;;;;;;502066;28;1392;-67
2024/01/08 00:55:23;;;;;;;2.00;1.50;;;;;;;;;;498769;28;1219;-67
2024/01/08 00:55:39;;;;;;;2.70;1.40;;;;;;;;;;505833;28;1386;-67
2024/01/08 00:55:55;;;;;;;2.77;1.50;;;;;;;;;;504408;28;1182;-67
2024/01/08 00:56:13;;;;;;;2.00;1.40;;;;;;;;;;502472;28;935;-67
2024/01/08 00:56:29;;;;;;;1.63;1.30;;;;;;;;;;501646;28;1194;-67
2024/01/08 00:56:45;;;;;;;2.45;1.30;;;;;;;;;;502344;28;1500;-67
2024/01/08 00:57:00;;;;;;;2.43;1.30;;;;;;;;;;501574;28;1970;-67
2024/01/08 00:57:16;;;;;;;1.75;1.30;;;;;;;;;;498576;28;1389;-68
2024/01/08 00:57:32;;;;;;;2.10;1.40;;;;;;;;;;500603;28;1567;-67
2024/01/08 00:57:48;;;;;;;2.15;1.45;;;;;;;;;;500239;28;1171;-67
2024/01/08 00:58:04;;;;;;;2.10;1.50;;;;;;;;;;497873;28;1532;-67
2024/01/08 00:58:19;;;;;;;2.27;1.50;;;;;;;;;;496209;28;1206;-67
2024/01/08 00:58:36;;;;;;;2.30;1.40;;;;;;;;;;500928;28;1162;-66
2024/01/08 00:58:52;;;;;;;1.88;1.33;;;;;;;;;;500662;28;1472;-67
2024/01/08 00:59:08;;;;;;;1.70;1.30;;;;;;;;;;502911;28;1221;-67
2024/01/08 00:59:24;;;;;;;2.35;1.40;;;;;;;;;;496115;28;1189;-67
2024/01/08 00:59:39;;;;;;;2.57;1.47;;;;;;;;;;500282;28;1798;-67
2024/01/08 00:59:55;;;;;;;2.00;1.35;;;;;;;;;;500354;28;901;-66
2024/01/08 01:00:11;;;;;;;1.90;1.20;;;;;;;;;;501001;28;1188;-68
2024/01/08 01:00:27;;;;;;;1.98;1.23;;;;;;;;;;500628;28;1080;-68
2024/01/08 01:00:42;;;;;;;2.05;1.40;;;;;;;;;;503092;28;1428;-68
2024/01/08 01:00:58;;;;;;;2.63;1.47;;;;;;;;;;503654;28;1220;-67
2024/01/08 01:01:15;;;;;;;2.33;1.40;;;;;;;;;;502350;28;1281;-66
2024/01/08 01:01:31;;;;;;;1.75;1.38;;;;;;;;;;502375;28;1285;-67
2024/01/08 01:01:46;;;;;;;2.10;1.48;;;;;;;;;;506670;28;1329;-67
2024/01/08 01:02:02;;;;;;;1.83;1.40;;;;;;;;;;503014;28;1297;-67
2024/01/08 01:02:18;;;;;;;1.52;1.33;;;;;;;;;;498391;28;1340;-67
2024/01/08 01:02:34;;;;;;;2.22;1.50;;;;;;;;;;503131;28;1041;-66
2024/01/08 01:02:49;;;;;;;2.10;1.30;;;;;;;;;;501273;28;1366;-67
2024/01/08 01:03:08;;;;;;;2.08;1.30;;;;;;;;;;504900;28;1335;-67
2024/01/08 01:03:25;;;;;;;2.40;1.40;;;;;;;;;;499562;28;1120;-67
2024/01/08 01:03:41;;;;;;;2.10;1.40;;;;;;;;;;501653;28;1314;-67
2024/01/08 01:03:56;;;;;;;2.50;1.50;;;;;;;;;;499474;28;1130;-67
2024/01/08 01:04:14;;;;;;;2.30;1.57;;;;;;;;;;499669;28;1317;-67
2024/01/08 01:04:29;;;;;;;1.95;1.45;;;;;;;;;;501369;28;1573;-66
2024/01/08 01:04:45;;;;;;;2.03;1.37;;;;;;;;;;499799;28;1123;-67
2024/01/08 01:05:01;;;;;;;2.30;1.42;;;;;;;;;;501220;28;1243;-67
2024/01/08 01:05:16;;;;;;;2.53;1.60;;;;;;;;;;499076;28;1253;-66
2024/01/08 01:05:32;;;;;;;2.53;1.60;;;;;;;;;;503080;28;1200;-67
2024/01/08 01:05:48;;;;;;;2.38;1.50;;;;;;;;;;501731;28;1248;-67
2024/01/08 01:06:04;;;;;;;1.70;1.40;;;;;;;;;;500029;28;2201;-67
2024/01/08 01:06:21;;;;;;;1.55;1.30;;;;;;;;;;496915;28;1313;-67
2024/01/08 01:06:37;;;;;;;2.15;1.38;;;;;;;;;;501833;28;1233;-67
2024/01/08 01:06:52;;;;;;;2.17;1.40;;;;;;;;;;500264;28;1141;-68
2024/01/08 01:07:08;;;;;;;2.28;1.50;;;;;;;;;;501370;28;1068;-67
2024/01/08 01:07:26;;;;;;;2.60;1.50;;;;;;;;;;498080;28;1320;-67
2024/01/08 01:07:42;;;;;;;1.95;1.30;;;;;;;;;;500311;28;1529;-67
2024/01/08 01:07:57;;;;;;;2.35;1.58;;;;;;;;;;503347;28;1436;-67
2024/01/08 01:08:13;;;;;;;2.67;1.70;;;;;;;;;;501917;28;1050;-67
2024/01/08 01:08:29;;;;;;;2.13;1.40;;;;;;;;;;499851;28;1241;-67
2024/01/08 01:08:44;;;;;;;2.35;1.48;;;;;;;;;;500174;28;1228;-66
2024/01/08 01:09:00;;;;;;;2.60;1.50;;;;;;;;;;499849;28;1425;-67
2024/01/08 01:09:16;;;;;;;2.47;1.60;;;;;;;;;;497005;28;1267;-67
2024/01/08 01:09:32;;;;;;;1.98;1.60;;;;;;;;;;501396;28;1469;-69
2024/01/08 01:09:48;;;;;;;2.15;1.45;;;;;;;;;;498862;28;1181;-67
2024/01/08 01:10:04;;;;;;;2.33;1.47;;;;;;;;;;496974;28;1253;-67
2024/01/08 01:10:20;;;;;;;1.92;1.52;;;;;;;;;;494630;28;1299;-67
2024/01/08 01:10:35;;;;;;;1.67;1.50;;;;;;;;;;499387;28;1575;-67
2024/01/08 01:10:51;;;;;;;1.90;1.48;;;;;;;;;;500589;28;1395;-67
2024/01/08 01:11:07;;;;;;;1.80;1.40;;;;;;;;;;499411;28;1266;-67
2024/01/08 01:11:23;;;;;;;1.83;1.40;;;;;;;;;;499403;28;1457;-67
2024/01/08 01:11:39;;;;;;;1.67;1.30;;;;;;;;;;500359;28;1297;-67
2024/01/08 01:11:56;;;;;;;2.10;1.40;;;;;;;;;;498955;28;1251;-67
2024/01/08 01:12:11;;;;;;;2.47;1.60;;;;;;;;;;499867;28;1247;-67
2024/01/08 01:12:27;;;;;;;2.30;1.50;;;;;;;;;;500421;28;1097;-67
2024/01/08 01:12:43;;;;;;;2.20;1.50;;;;;;;;;;501113;28;1159;-67
2024/01/08 01:12:59;;;;;;;1.85;1.50;;;;;;;;;;499945;28;1286;-67
2024/01/08 01:13:15;;;;;;;1.60;1.30;;;;;;;;;;498643;28;1478;-69
2024/01/08 01:13:31;;;;;;;1.95;1.30;;;;;;;;;;502145;28;1082;-67
2024/01/08 01:13:47;;;;;;;2.03;1.30;;;;;;;;;;504844;28;1322;-67
2024/01/08 01:14:03;;;;;;;2.35;1.50;;;;;;;;;;500886;28;1291;-67
2024/01/08 01:14:19;;;;;;;2.65;1.50;;;;;;;;;;497228;28;1409;-67
2024/01/08 01:14:35;;;;;;;2.25;1.40;;;;;;;;;;504175;28;1759;-67
2024/01/08 01:14:50;;;;;;;2.65;1.40;;;;;;;;;;502903;28;1343;-68
2024/01/08 01:15:07;;;;;;;2.78;1.40;;;;;;;;;;503336;28;1386;-68
2024/01/08 01:15:23;;;;;;;2.65;1.40;;;;;;;;;;498960;28;1171;-67
2024/01/08 01:15:39;;;;;;;2.38;1.30;;;;;;;;;;502222;28;1307;-67
2024/01/08 01:15:55;;;;;;;1.88;1.40;;;;;;;;;;501132;28;1205;-67
2024/01/08 01:16:10;;;;;;;1.55;1.35;;;;;;;;;;499531;28;1418;-67
2024/01/08 01:16:29;;;;;;;2.00;1.40;;;;;;;;;;497788;28;1232;-67
2024/01/08 01:16:45;;;;;;;2.20;1.23;;;;;;;;;;501742;28;1299;-66
2024/01/08 01:17:01;;;;;;;1.77;1.27;;;;;;;;;;501143;28;2082;-66
2024/01/08 01:17:17;;;;;;;3.50;1.40;;;;;;;;;;497272;28;1240;-67
2024/01/08 01:17:32;;;;;;;3.10;1.40;;;;;;;;;;500074;28;1255;-67
2024/01/08 01:17:48;;;;;;;1.83;1.30;;;;;;;;;;498043;28;1169;-66
2024/01/08 01:18:04;;;;;;;1.87;1.30;;;;;;;;;;503531;28;1144;-67
2024/01/08 01:18:19;;;;;;;2.28;1.30;;;;;;;;;;497116;28;1333;-67
2024/01/08 01:18:35;;;;;;;1.85;1.20;;;;;;;;;;501452;28;1331;-67
2024/01/08 01:18:51;;;;;;;1.67;1.30;;;;;;;;;;499358;28;1221;-67
2024/01/08 01:19:06;;;;;;;2.20;1.40;;;;;;;;;;499206;28;1420;-67
2024/01/08 01:19:22;;;;;;;2.22;1.48;;;;;;;;;;499162;28;1207;-67
2024/01/08 01:19:38;;;;;;;2.17;1.50;;;;;;;;;;499814;28;1302;-67
2024/01/08 01:19:54;;;;;;;1.93;1.37;;;;;;;;;;501779;28;1357;-67
2024/01/08 01:20:09;;;;;;;1.88;1.33;;;;;;;;;;501565;28;1216;-67
2024/01/08 01:20:25;;;;;;;1.83;1.38;;;;;;;;;;501131;28;1187;-67
2024/01/08 01:20:41;;;;;;;1.90;1.25;;;;;;;;;;502931;28;1529;-67
2024/01/08 01:20:57;;;;;;;2.03;1.27;;;;;;;;;;504030;28;1160;-67
2024/01/08 01:21:20;;;;;;;2.10;1.58;;;;;;;;;;501445;28;1231;-67
2024/01/08 01:21:36;;;;;;;2.17;1.48;;;;;;;;;;501716;28;1493;-67
2024/01/08 01:21:53;;;;;;;2.03;1.40;;;;;;;;;;497153;28;1070;-68
2024/01/08 01:22:08;;;;;;;2.00;1.40;;;;;;;;;;502363;28;1419;-67
2024/01/08 01:22:24;;;;;;;1.90;1.40;;;;;;;;;;495811;28;1263;-67
2024/01/08 01:22:40;;;;;;;1.75;1.20;;;;;;;;;;500624;28;1349;-67
2024/01/08 01:22:56;;;;;;;1.42;1.15;;;;;;;;;;501866;28;1210;-67
2024/01/08 01:23:12;;;;;;;1.73;1.20;;;;;;;;;;502715;28;1262;-67
2024/01/08 01:23:28;;;;;;;1.85;1.23;;;;;;;;;;502411;28;1422;-67
2024/01/08 01:23:43;;;;;;;2.05;1.30;;;;;;;;;;500607;28;1620;-67
2024/01/08 01:23:59;;;;;;;1.90;1.30;;;;;;;;;;498521;28;1167;-67
2024/01/08 01:24:15;;;;;;;1.60;1.30;;;;;;;;;;496984;28;1197;-66
2024/01/08 01:24:30;;;;;;;1.70;1.30;;;;;;;;;;500101;28;1220;-68
2024/01/08 01:24:46;;;;;;;1.83;1.33;;;;;;;;;;501618;28;1274;-67
2024/01/08 01:25:02;;;;;;;2.03;1.40;;;;;;;;;;500628;28;1253;-67
2024/01/08 01:25:17;;;;;;;2.05;1.30;;;;;;;;;;499694;28;1404;-68
2024/01/08 01:25:33;;;;;;;1.73;1.30;;;;;;;;;;501574;28;1254;-67
2024/01/08 01:25:49;;;;;;;1.80;1.40;;;;;;;;;;501584;28;1075;-67
2024/01/08 01:26:04;;;;;;;2.50;1.30;;;;;;;;;;499851;28;1246;-67
2024/01/08 01:26:21;;;;;;;2.55;1.25;;;;;;;;;;497586;28;1529;-67
2024/01/08 01:26:37;;;;;;;2.13;1.30;;;;;;;;;;501530;28;1226;-67
2024/01/08 01:26:52;;;;;;;1.80;1.30;;;;;;;;;;500308;28;1297;-67
2024/01/08 01:27:08;;;;;;;1.63;1.30;;;;;;;;;;497006;28;1239;-67
2024/01/08 01:27:23;;;;;;;1.65;1.20;;;;;;;;;;491455;28;1354;-66
2024/01/08 01:27:39;;;;;;;1.70;1.27;;;;;;;;;;498922;28;1201;-67
2024/01/08 01:27:55;;;;;;;1.70;1.30;;;;;;;;;;499189;28;1183;-66
2024/01/08 01:28:11;;;;;;;1.60;1.20;;;;;;;;;;498638;28;1447;-68
2024/01/08 01:28:27;;;;;;;1.83;1.20;;;;;;;;;;499925;28;1261;-67
2024/01/08 01:28:43;;;;;;;1.90;1.25;;;;;;;;;;503382;28;1330;-67
2024/01/08 01:28:58;;;;;;;1.48;1.10;;;;;;;;;;500450;28;1224;-68
2024/01/08 01:29:14;;;;;;;1.63;1.10;;;;;;;;;;497496;28;1470;-67
2024/01/08 01:29:30;;;;;;;3.10;1.30;;;;;;;;;;499709;28;1174;-67
2024/01/08 01:29:46;;;;;;;3.00;1.30;;;;;;;;;;502286;28;1277;-68
2024/01/08 01:30:03;;;;;;;1.77;1.20;;;;;;;;;;499348;28;1238;-68
2024/01/08 01:30:19;;;;;;;1.88;1.20;;;;;;;;;;498186;28;1382;-68
2024/01/08 01:30:35;;;;;;;1.98;1.30;;;;;;;;;;502216;28;1479;-67
2024/01/08 01:30:51;;;;;;;1.80;1.30;;;;;;;;;;501549;28;1152;-67
2024/01/08 01:31:09;;;;;;;1.40;1.20;;;;;;;;;;502787;28;1406;-67
2024/01/08 01:31:25;;;;;;;1.85;1.35;;;;;;;;;;499580;28;1244;-68
2024/01/08 01:31:40;;;;;;;1.92;1.40;;;;;;;;;;502809;28;1328;-68
2024/01/08 01:31:56;;;;;;;1.58;1.27;;;;;;;;;;502454;28;925;-67
2024/01/08 01:32:12;;;;;;;1.73;1.20;;;;;;;;;;500365;28;1134;-67
2024/01/08 01:32:28;;;;;;;1.83;1.10;;;;;;;;;;500677;28;1330;-67
2024/01/08 01:32:44;;;;;;;1.45;1.00;;;;;;;;;;500180;28;1307;-67
2024/01/08 01:33:00;;;;;;;1.52;1.05;;;;;;;;;;496724;28;1170;-67
2024/01/08 01:33:15;;;;;;;1.67;1.10;;;;;;;;;;496130;28;1205;-67
2024/01/08 01:33:31;;;;;;;1.83;1.20;;;;;;;;;;498042;28;1504;-68
2024/01/08 01:33:47;;;;;;;2.00;1.30;;;;;;;;;;501081;28;1198;-67
2024/01/08 01:34:07;;;;;;;2.30;1.30;;;;;;;;;;497256;28;1196;-67
2024/01/08 01:34:23;;;;;;;2.38;1.20;;;;;;;;;;496158;28;1331;-67
2024/01/08 01:34:39;;;;;;;2.33;1.33;;;;;;;;;;497593;28;1271;-67
2024/01/08 01:34:54;;;;;;;1.67;1.33;;;;;;;;;;497852;28;1051;-67
2024/01/08 01:35:10;;;;;;;1.70;1.20;;;;;;;;;;499424;28;1216;-67
2024/01/08 01:35:26;;;;;;;2.13;1.20;;;;;;;;;;497084;28;1128;-67
2024/01/08 01:35:41;;;;;;;2.15;1.20;;;;;;;;;;503592;28;989;-67
2024/01/08 01:35:57;;;;;;;1.63;1.10;;;;;;;;;;500702;28;862;-67
2024/01/08 01:36:15;;;;;;;1.52;1.08;;;;;;;;;;501722;28;1742;-67
2024/01/08 01:36:35;;;;;;;1.65;1.00;;;;;;;;;;501696;28;1419;-67
2024/01/08 01:36:50;;;;;;;1.67;1.10;;;;;;;;;;504096;28;1044;-67
2024/01/08 01:37:06;;;;;;;1.57;1.17;;;;;;;;;;504271;28;2011;-67
2024/01/08 01:37:22;;;;;;;1.42;1.05;;;;;;;;;;498554;28;1161;-67
2024/01/08 01:37:38;;;;;;;1.55;1.00;;;;;;;;;;503567;28;1140;-67
2024/01/08 01:37:54;;;;;;;1.70;1.08;;;;;;;;;;500618;28;1471;-67
2024/01/08 01:38:09;;;;;;;1.40;1.08;;;;;;;;;;499292;28;1352;-67
2024/01/08 01:38:27;;;;;;;1.33;1.00;;;;;;;;;;494256;28;1272;-67
2024/01/08 01:38:43;;;;;;;1.70;1.10;;;;;;;;;;500678;28;1126;-67